Time;durP1;ratioP1;P1;durP2;ratioP2;P2;SDS_P1;SDS_P2;PMS_P1;PMS_P2;Temp;Humidity;BMP_temperature;BMP_pressure;BME280_temperature;BME280_humidity;BME280_pressure;Samples;Min_cycle;Max_cycle;Signal;HPM_P1;HPM_P2
2023/01/29 00:02:18;;;;;;;26.73;14.30;;;1.80;99.90;;;;;;5113514;28;20619;-68
2023/01/29 00:04:44;;;;;;;23.57;13.77;;;1.80;99.90;;;;;;5113410;28;20235;-72
2023/01/29 00:07:10;;;;;;;24.57;13.87;;;1.80;99.90;;;;;;5113317;28;20192;-71
2023/01/29 00:09:36;;;;;;;23.10;13.57;;;1.70;99.90;;;;;;5113367;28;20242;-76
2023/01/29 00:12:02;;;;;;;24.53;13.70;;;1.70;99.90;;;;;;5113556;28;20167;-72
2023/01/29 00:14:28;;;;;;;22.43;13.73;;;1.70;99.90;;;;;;5113795;28;20191;-78
2023/01/29 00:16:53;;;;;;;23.77;14.27;;;1.70;99.90;;;;;;5113701;28;20529;-72
2023/01/29 00:19:19;;;;;;;22.40;13.03;;;1.70;99.90;;;;;;5113766;28;20221;-71
2023/01/29 00:21:45;;;;;;;24.40;14.60;;;1.70;99.90;;;;;;5094827;28;20183;-69
2023/01/29 00:24:11;;;;;;;23.80;14.30;;;1.70;99.90;;;;;;5095231;28;20180;-71
2023/01/29 00:26:38;;;;;;;26.87;14.00;;;1.70;99.90;;;;;;5113038;28;20729;-71
2023/01/29 00:29:05;;;;;;;23.50;13.97;;;1.80;99.90;;;;;;5094997;28;20293;-70
2023/01/29 00:31:31;;;;;;;22.23;12.73;;;1.80;99.90;;;;;;5113556;28;20164;-75
2023/01/29 00:33:57;;;;;;;23.57;13.67;;;1.80;99.90;;;;;;5113342;28;20529;-75
2023/01/29 00:36:24;;;;;;;20.77;13.23;;;1.90;99.90;;;;;;5112908;28;20638;-70
2023/01/29 00:38:57;;;;;;;21.73;12.73;;;1.80;99.90;;;;;;5113293;28;20571;-69
2023/01/29 00:46:55;;;;;;;22.90;13.07;;;1.80;99.90;;;;;;5113671;28;20524;-71
2023/01/29 00:49:20;;;;;;;23.07;13.93;;;1.80;99.90;;;;;;5112807;28;20215;-69
2023/01/29 00:52:22;;;;;;;18.17;12.80;;;1.70;99.90;;;;;;5113179;28;20186;-72
2023/01/29 00:54:32;;;;;;;22.17;13.43;;;1.80;99.90;;;;;;5112931;28;20570;-71
2023/01/29 00:56:58;;;;;;;23.80;13.93;;;1.70;99.90;;;;;;5094552;28;20266;-74
2023/01/29 00:59:23;;;;;;;21.90;14.43;;;1.70;99.90;;;;;;5112886;28;20188;-73
2023/01/29 01:04:33;;;;;;;22.67;13.27;;;1.60;99.90;;;;;;5112844;28;20174;-72
2023/01/29 01:06:59;;;;;;;21.60;13.57;;;1.60;99.90;;;;;;5112710;28;20185;-72
2023/01/29 01:12:10;;;;;;;20.17;12.53;;;1.70;99.90;;;;;;5092795;28;20180;-75
2023/01/29 01:14:35;;;;;;;19.70;12.50;;;1.80;99.90;;;;;;5091436;28;20172;-73
2023/01/29 01:17:01;;;;;;;22.50;14.17;;;1.70;99.90;;;;;;5092461;28;20243;-74
2023/01/29 01:19:27;;;;;;;23.10;13.63;;;1.70;99.90;;;;;;5093348;28;20177;-74
2023/01/29 01:21:53;;;;;;;22.20;13.00;;;1.70;99.90;;;;;;5093340;28;20237;-72
2023/01/29 01:24:19;;;;;;;25.17;13.97;;;1.70;99.90;;;;;;5092887;28;20250;-75
2023/01/29 01:26:45;;;;;;;21.43;12.50;;;1.70;99.90;;;;;;5092183;28;20588;-74
2023/01/29 01:29:11;;;;;;;21.37;12.77;;;1.60;99.90;;;;;;5073864;28;20226;-73
2023/01/29 01:31:37;;;;;;;26.03;14.77;;;1.70;99.90;;;;;;5092247;28;20172;-71
2023/01/29 01:34:03;;;;;;;23.00;13.10;;;1.70;99.90;;;;;;5092170;28;20173;-68
2023/01/29 01:36:31;;;;;;;26.43;13.83;;;1.70;99.90;;;;;;5092405;28;20173;-70
2023/01/29 01:38:57;;;;;;;24.10;13.77;;;1.70;99.90;;;;;;5095505;28;20183;-69
2023/01/29 01:41:24;;;;;;;22.77;13.83;;;1.70;99.90;;;;;;5096099;28;20217;-68
2023/01/29 01:43:58;;;;;;;20.93;13.03;;;1.80;99.90;;;;;;5095852;28;20704;-69
2023/01/29 01:46:29;;;;;;;19.10;12.83;;;1.70;99.90;;;;;;5095589;28;20177;-68
2023/01/29 01:49:10;;;;;;;21.90;13.83;;;1.70;99.90;;;;;;5095897;28;20522;-69
2023/01/29 01:51:41;;;;;;;18.73;12.13;;;1.80;99.90;;;;;;5095947;28;20156;-72
2023/01/29 01:54:10;;;;;;;23.17;13.33;;;1.70;99.90;;;;;;5095978;28;20525;-69
2023/01/29 01:56:41;;;;;;;22.63;13.27;;;1.70;99.90;;;;;;5095657;28;20172;-72
2023/01/29 01:59:10;;;;;;;20.73;13.40;;;1.70;99.90;;;;;;5096082;28;20188;-71
2023/01/29 02:01:39;;;;;;;25.80;13.70;;;1.70;99.90;;;;;;5095749;28;20255;-71
2023/01/29 02:09:48;;;;;;;26.93;12.77;;;1.80;99.90;;;;;;5095318;28;20298;-77
2023/01/29 02:12:15;;;;;;;20.13;12.57;;;1.70;99.90;;;;;;5095468;28;20215;-71
2023/01/29 02:14:42;;;;;;;19.27;13.47;;;1.70;99.90;;;;;;5095591;28;20270;-77
2023/01/29 02:17:16;;;;;;;21.03;13.13;;;1.70;99.90;;;;;;5094173;28;20256;-71
2023/01/29 02:20:08;;;;;;;20.90;12.87;;;1.70;99.90;;;;;;5095366;28;20173;-73
2023/01/29 02:22:46;;;;;;;19.80;13.27;;;1.80;99.90;;;;;;5095274;28;20194;-69
2023/01/29 02:25:30;;;;;;;21.90;13.03;;;1.70;99.90;;;;;;5095457;28;20177;-72
2023/01/29 02:28:33;;;;;;;22.30;12.53;;;1.70;99.90;;;;;;5094906;28;20195;-73
2023/01/29 02:31:14;;;;;;;19.70;12.17;;;1.70;99.90;;;;;;5095290;28;20277;-77
2023/01/29 02:33:52;;;;;;;21.07;12.73;;;1.70;99.90;;;;;;5094963;28;20172;-75
2023/01/29 02:36:20;;;;;;;20.77;12.13;;;1.70;99.90;;;;;;5093712;28;20271;-71
2023/01/29 02:39:18;;;;;;;18.37;12.60;;;1.70;99.90;;;;;;5094795;28;20183;-71
2023/01/29 02:41:47;;;;;;;20.40;12.10;;;1.70;99.90;;;;;;5094606;28;20214;-74
2023/01/29 02:44:27;;;;;;;22.60;13.07;;;1.70;99.90;;;;;;5093638;28;20285;-77
2023/01/29 02:47:03;;;;;;;20.67;13.10;;;1.70;99.90;;;;;;5094832;28;20217;-76
2023/01/29 02:49:43;;;;;;;23.53;13.20;;;1.60;99.90;;;;;;5094235;28;20205;-77
2023/01/29 02:52:17;;;;;;;16.43;11.87;;;1.70;99.90;;;;;;5094880;28;20168;-68
2023/01/29 02:54:52;;;;;;;21.07;12.77;;;1.60;99.90;;;;;;5094810;28;20171;-68
2023/01/29 02:57:27;;;;;;;20.23;13.20;;;1.60;99.90;;;;;;5094412;28;20260;-68
2023/01/29 03:00:19;;;;;;;21.50;12.90;;;1.60;99.90;;;;;;5094434;28;20163;-68
2023/01/29 03:02:54;;;;;;;18.20;11.70;;;1.70;99.90;;;;;;5094739;28;20592;-74
2023/01/29 03:05:49;;;;;;;19.03;10.93;;;1.60;99.90;;;;;;5094636;28;20250;-75
2023/01/29 03:08:22;;;;;;;21.30;11.30;;;1.60;99.90;;;;;;5075803;28;20176;-76
2023/01/29 03:10:55;;;;;;;21.27;12.00;;;1.60;99.90;;;;;;5094475;28;20170;-73
2023/01/29 03:13:40;;;;;;;19.23;12.03;;;1.60;99.90;;;;;;5094334;28;20645;-74
2023/01/29 03:16:38;;;;;;;21.53;11.87;;;1.70;99.90;;;;;;5094532;28;20154;-74
2023/01/29 03:19:30;;;;;;;18.60;11.80;;;1.70;99.90;;;;;;5095462;28;20622;-70
2023/01/29 03:21:58;;;;;;;18.43;11.47;;;1.60;99.90;;;;;;5094179;28;20166;-73
2023/01/29 03:32:54;;;;;;;18.53;11.93;;;1.50;99.90;;;;;;5093946;28;20233;-73
2023/01/29 03:35:34;;;;;;;18.27;11.90;;;1.50;99.90;;;;;;5094029;28;20179;-72
2023/01/29 03:38:01;;;;;;;18.87;11.83;;;1.50;99.90;;;;;;5093927;28;20585;-70
2023/01/29 03:40:32;;;;;;;18.97;12.20;;;1.50;99.90;;;;;;5094026;28;20523;-70
2023/01/29 03:43:24;;;;;;;19.27;11.90;;;1.50;99.90;;;;;;5093759;28;20311;-71
2023/01/29 03:46:08;;;;;;;22.10;12.47;;;1.60;99.90;;;;;;5093873;28;20203;-69
2023/01/29 03:48:43;;;;;;;19.60;11.73;;;1.60;99.90;;;;;;5093246;28;20196;-68
2023/01/29 03:51:19;;;;;;;22.17;12.63;;;1.60;99.90;;;;;;5093705;28;20250;-68
2023/01/29 03:53:55;;;;;;;17.73;11.53;;;1.60;99.90;;;;;;5094154;28;20575;-72
2023/01/29 03:56:30;;;;;;;19.00;11.80;;;1.50;99.90;;;;;;5093715;28;20165;-75
2023/01/29 03:59:02;;;;;;;18.57;12.20;;;1.50;99.90;;;;;;5093399;28;20168;-71
2023/01/29 04:01:34;;;;;;;20.67;12.67;;;1.50;99.90;;;;;;5091516;28;20530;-72
2023/01/29 04:04:16;;;;;;;20.17;11.90;;;1.50;99.90;;;;;;5093565;28;20684;-73
2023/01/29 04:06:46;;;;;;;20.80;12.27;;;1.50;99.90;;;;;;5093630;28;20259;-71
2023/01/29 04:09:22;;;;;;;19.50;12.13;;;1.50;99.90;;;;;;5092663;28;20198;-73
2023/01/29 04:12:01;;;;;;;19.90;12.63;;;1.50;99.90;;;;;;5093308;28;20156;-69
2023/01/29 04:14:27;;;;;;;19.53;13.13;;;1.50;99.90;;;;;;5093392;28;20168;-74
2023/01/29 04:16:56;;;;;;;19.30;13.37;;;1.50;99.90;;;;;;5095745;28;20167;-74
2023/01/29 04:19:23;;;;;;;20.73;12.47;;;1.40;99.90;;;;;;5095140;28;20228;-74
2023/01/29 04:21:58;;;;;;;19.90;12.53;;;1.50;99.90;;;;;;5094136;28;20167;-74
2023/01/29 04:24:24;;;;;;;21.87;13.00;;;1.50;99.90;;;;;;5092086;28;20164;-74
2023/01/29 04:27:14;;;;;;;23.17;12.70;;;1.50;99.90;;;;;;5093184;28;20737;-73
2023/01/29 04:29:54;;;;;;;22.07;12.77;;;1.50;99.90;;;;;;5092552;28;20199;-77
2023/01/29 04:32:30;;;;;;;19.23;12.03;;;1.50;99.90;;;;;;5092931;28;20171;-74
2023/01/29 04:35:15;;;;;;;20.40;13.30;;;1.50;99.90;;;;;;5093095;28;20229;-74
2023/01/29 04:37:40;;;;;;;21.93;13.40;;;1.40;99.90;;;;;;5093065;28;20236;-71
2023/01/29 04:40:18;;;;;;;22.47;13.30;;;1.40;99.90;;;;;;5092531;28;20222;-71
2023/01/29 04:43:24;;;;;;;19.60;12.63;;;1.40;99.90;;;;;;5092669;28;20190;-76
2023/01/29 04:46:09;;;;;;;22.80;12.97;;;1.60;99.90;;;;;;5092382;28;20199;-74
2023/01/29 04:48:56;;;;;;;22.63;12.73;;;1.60;99.90;;;;;;5092474;28;20592;-72
2023/01/29 04:51:31;;;;;;;21.33;12.57;;;1.60;99.90;;;;;;5092758;28;20228;-71
2023/01/29 04:54:21;;;;;;;20.40;12.93;;;1.60;99.90;;;;;;5092952;28;20213;-72
2023/01/29 04:56:57;;;;;;;17.50;11.07;;;1.50;99.90;;;;;;5093129;28;20267;-70
2023/01/29 04:59:43;;;;;;;21.40;12.60;;;1.50;99.90;;;;;;5092591;28;20175;-70
2023/01/29 05:02:11;;;;;;;19.67;12.47;;;1.50;99.90;;;;;;5092788;28;20256;-70
2023/01/29 05:04:40;;;;;;;19.23;11.87;;;1.50;99.90;;;;;;5092614;28;20172;-71
2023/01/29 05:07:10;;;;;;;18.13;11.20;;;1.40;99.90;;;;;;5092790;28;20169;-70
2023/01/29 05:09:37;;;;;;;17.07;11.20;;;1.40;99.90;;;;;;5091903;28;20253;-71
2023/01/29 05:12:05;;;;;;;17.80;12.13;;;1.40;99.90;;;;;;5094327;28;20163;-69
2023/01/29 05:14:33;;;;;;;18.20;11.70;;;1.40;99.90;;;;;;5096688;28;20240;-72
2023/01/29 05:17:06;;;;;;;20.27;12.27;;;1.40;99.90;;;;;;5097064;28;20183;-72
2023/01/29 05:19:32;;;;;;;21.53;12.30;;;1.40;99.90;;;;;;5096561;28;20171;-69
2023/01/29 05:21:58;;;;;;;21.73;11.67;;;1.40;99.90;;;;;;5096591;28;20168;-69
2023/01/29 05:24:25;;;;;;;19.13;12.33;;;1.50;99.90;;;;;;5096553;28;20173;-69
2023/01/29 05:29:42;;;;;;;17.77;11.17;;;1.40;99.90;;;;;;5095701;28;20233;-71
2023/01/29 05:32:08;;;;;;;20.70;11.53;;;1.40;99.90;;;;;;5096360;28;20684;-68
2023/01/29 05:34:33;;;;;;;20.27;12.03;;;1.40;99.90;;;;;;5096286;28;20254;-68
2023/01/29 05:36:59;;;;;;;19.03;12.17;;;1.30;99.90;;;;;;5096011;28;20232;-69
2023/01/29 05:39:25;;;;;;;17.30;10.60;;;1.30;99.90;;;;;;5095871;28;20181;-69
2023/01/29 05:41:51;;;;;;;18.20;11.67;;;1.30;99.90;;;;;;5094781;28;20212;-68
2023/01/29 05:44:16;;;;;;;18.27;12.07;;;1.40;99.90;;;;;;5095808;28;20302;-68
2023/01/29 05:46:42;;;;;;;19.63;13.03;;;1.30;99.90;;;;;;5096249;28;20177;-68
2023/01/29 05:49:08;;;;;;;17.67;11.40;;;1.30;99.90;;;;;;5096486;28;20256;-67
2023/01/29 05:51:34;;;;;;;21.17;12.43;;;1.20;99.90;;;;;;5096213;28;20541;-69
2023/01/29 05:54:00;;;;;;;20.20;12.73;;;1.10;99.90;;;;;;5095937;28;20171;-72
2023/01/29 05:56:25;;;;;;;19.43;12.60;;;1.10;99.90;;;;;;5095915;28;20172;-74
2023/01/29 05:58:51;;;;;;;19.83;12.50;;;1.10;99.90;;;;;;5095807;28;20198;-72
2023/01/29 06:01:20;;;;;;;21.70;13.13;;;1.10;99.90;;;;;;5095481;28;20660;-71
2023/01/29 06:03:47;;;;;;;20.20;12.03;;;1.20;99.90;;;;;;5095759;28;20199;-72
2023/01/29 06:06:13;;;;;;;21.17;12.60;;;1.20;99.90;;;;;;5095787;28;20535;-69
2023/01/29 06:08:39;;;;;;;19.80;12.60;;;1.20;99.90;;;;;;5095184;28;20219;-75
2023/01/29 06:11:07;;;;;;;19.67;12.13;;;1.20;99.90;;;;;;5095356;28;20251;-74
2023/01/29 06:13:33;;;;;;;26.27;13.80;;;1.20;99.90;;;;;;5095509;28;20255;-68
2023/01/29 06:15:59;;;;;;;20.80;12.63;;;1.10;99.90;;;;;;5095556;28;20267;-73
2023/01/29 06:18:24;;;;;;;19.67;13.33;;;1.10;99.90;;;;;;5095551;28;20176;-73
2023/01/29 06:20:50;;;;;;;20.27;12.33;;;1.10;99.90;;;;;;5110981;28;20181;-75
2023/01/29 06:23:16;;;;;;;23.13;13.50;;;1.10;99.90;;;;;;5115044;28;20172;-74
2023/01/29 06:25:42;;;;;;;22.90;12.70;;;1.10;99.90;;;;;;5115757;28;20240;-77
2023/01/29 06:28:08;;;;;;;20.60;12.50;;;1.10;99.90;;;;;;5115614;28;20227;-73
2023/01/29 06:30:33;;;;;;;20.47;12.27;;;1.10;99.90;;;;;;5115102;28;20689;-73
2023/01/29 06:33:02;;;;;;;22.13;13.73;;;1.00;99.90;;;;;;5115500;28;20179;-70
2023/01/29 06:35:28;;;;;;;20.23;12.83;;;1.00;99.90;;;;;;5115656;28;20262;-72
2023/01/29 06:37:55;;;;;;;23.73;14.77;;;1.00;99.90;;;;;;5115561;28;20301;-72
2023/01/29 06:40:21;;;;;;;28.53;15.17;;;1.10;99.90;;;;;;5115163;28;20540;-73
2023/01/29 06:42:47;;;;;;;23.20;14.77;;;1.20;99.90;;;;;;5115034;28;20177;-70
2023/01/29 06:45:12;;;;;;;25.17;14.47;;;1.20;99.90;;;;;;5115422;28;20171;-72
2023/01/29 06:47:38;;;;;;;25.57;14.23;;;1.20;99.90;;;;;;5115384;28;20167;-72
2023/01/29 06:50:04;;;;;;;23.67;13.60;;;1.20;99.90;;;;;;5114848;28;20674;-72
2023/01/29 06:52:30;;;;;;;24.23;13.80;;;1.10;99.90;;;;;;5113926;28;20231;-72
2023/01/29 06:54:56;;;;;;;21.57;13.50;;;1.10;99.90;;;;;;5110680;28;20184;-75
2023/01/29 06:57:22;;;;;;;22.03;13.47;;;1.10;99.90;;;;;;5105623;28;20170;-71
2023/01/29 06:59:48;;;;;;;22.97;12.67;;;1.00;99.90;;;;;;5114446;28;20232;-73
2023/01/29 07:02:14;;;;;;;25.00;13.50;;;1.00;99.90;;;;;;5096093;28;20166;-70
2023/01/29 07:04:41;;;;;;;24.27;13.53;;;1.10;99.90;;;;;;5114994;28;20612;-73
2023/01/29 07:07:12;;;;;;;20.00;13.10;;;1.10;99.90;;;;;;5114820;28;20174;-69
2023/01/29 07:09:39;;;;;;;18.10;12.50;;;1.10;99.90;;;;;;5114305;28;20666;-70
2023/01/29 07:12:05;;;;;;;20.33;12.63;;;1.10;99.90;;;;;;5114551;28;20172;-72
2023/01/29 07:14:31;;;;;;;22.80;13.80;;;1.20;99.90;;;;;;5114636;28;20227;-71
2023/01/29 07:16:56;;;;;;;20.00;12.50;;;1.20;99.90;;;;;;5115230;28;20171;-71
2023/01/29 07:19:22;;;;;;;21.10;13.17;;;1.30;99.90;;;;;;5114854;28;20175;-70
2023/01/29 07:21:48;;;;;;;24.10;13.40;;;1.30;99.90;;;;;;5114573;28;20273;-69
2023/01/29 07:24:15;;;;;;;24.57;13.77;;;1.40;99.90;;;;;;5114627;28;20595;-71
2023/01/29 07:26:41;;;;;;;20.00;12.93;;;1.30;99.90;;;;;;5114373;28;20187;-71
2023/01/29 07:29:06;;;;;;;22.77;13.27;;;1.40;99.90;;;;;;5095880;28;20352;-72
2023/01/29 07:31:32;;;;;;;20.57;13.00;;;1.40;99.90;;;;;;5114122;28;20618;-71
2023/01/29 07:33:58;;;;;;;20.50;14.03;;;1.40;99.90;;;;;;5114336;28;20174;-69
2023/01/29 07:36:24;;;;;;;20.00;12.83;;;1.50;99.90;;;;;;5094949;28;20222;-70
2023/01/29 07:38:50;;;;;;;23.53;14.40;;;1.60;99.90;;;;;;5114071;28;20174;-65
2023/01/29 07:41:16;;;;;;;22.03;13.13;;;1.60;99.90;;;;;;5115033;28;20237;-71
2023/01/29 07:43:42;;;;;;;20.67;13.70;;;1.70;99.90;;;;;;5114805;28;20223;-67
2023/01/29 07:46:08;;;;;;;22.27;13.40;;;1.70;99.90;;;;;;5114203;28;20197;-66
2023/01/29 07:48:34;;;;;;;20.03;13.10;;;1.70;99.90;;;;;;5113777;28;20203;-71
2023/01/29 07:51:00;;;;;;;22.40;13.27;;;1.70;99.90;;;;;;5113802;28;20261;-70
2023/01/29 07:53:27;;;;;;;22.40;13.83;;;1.70;99.90;;;;;;5114031;28;20243;-69
2023/01/29 07:55:53;;;;;;;25.63;13.87;;;1.70;99.90;;;;;;5119689;28;20198;-70
2023/01/29 07:58:19;;;;;;;22.77;13.37;;;1.80;99.90;;;;;;5116178;28;20186;-70
2023/01/29 08:00:45;;;;;;;24.47;14.43;;;1.80;99.90;;;;;;5112674;28;20234;-71
2023/01/29 08:03:16;;;;;;;22.27;14.03;;;1.80;99.90;;;;;;5108990;28;20192;-70
2023/01/29 08:05:46;;;;;;;19.43;12.67;;;1.90;99.90;;;;;;5114128;28;20266;-71
2023/01/29 08:08:13;;;;;;;21.53;13.37;;;1.90;99.90;;;;;;5113781;28;20172;-71
2023/01/29 08:10:40;;;;;;;19.53;12.90;;;2.00;99.90;;;;;;5113113;28;20210;-72
2023/01/29 08:13:06;;;;;;;20.87;12.57;;;2.10;99.90;;;;;;5113441;28;20180;-73
2023/01/29 08:15:32;;;;;;;20.67;13.23;;;2.10;99.90;;;;;;5095631;28;20179;-73
2023/01/29 08:18:00;;;;;;;20.20;13.17;;;2.20;99.90;;;;;;5113548;28;20630;-72
2023/01/29 08:20:26;;;;;;;20.50;13.47;;;2.30;99.90;;;;;;5111447;28;20176;-72
2023/01/29 08:23:18;;;;;;;22.50;13.73;;;2.30;99.90;;;;;;5094841;28;20630;-72
2023/01/29 08:25:43;;;;;;;22.10;12.83;;;2.30;99.90;;;;;;5108519;28;20270;-73
2023/01/29 08:28:10;;;;;;;21.63;13.23;;;2.30;99.90;;;;;;5113452;28;20268;-73
2023/01/29 08:30:37;;;;;;;20.27;12.90;;;2.30;99.90;;;;;;5112721;28;20265;-72
2023/01/29 08:33:03;;;;;;;22.50;13.23;;;2.40;99.90;;;;;;5113100;28;20175;-71
2023/01/29 08:35:29;;;;;;;20.97;12.87;;;2.50;99.90;;;;;;5095064;28;20673;-74
2023/01/29 08:38:00;;;;;;;17.77;13.00;;;2.60;99.90;;;;;;5111563;28;20257;-70
2023/01/29 08:40:27;;;;;;;18.73;11.90;;;2.60;99.90;;;;;;5112840;28;20528;-70
2023/01/29 08:43:00;;;;;;;16.30;11.30;;;2.60;99.90;;;;;;5094573;28;20231;-68
2023/01/29 08:45:26;;;;;;;15.47;10.47;;;2.60;99.90;;;;;;5113089;28;20152;-69
2023/01/29 08:47:52;;;;;;;17.00;10.63;;;2.70;99.90;;;;;;5112818;28;20174;-67
2023/01/29 08:50:18;;;;;;;14.63;10.53;;;2.60;99.90;;;;;;5112788;28;20268;-69
2023/01/29 08:52:44;;;;;;;20.03;12.07;;;2.70;99.90;;;;;;5112832;28;20169;-74
2023/01/29 08:55:10;;;;;;;17.77;11.70;;;2.80;99.90;;;;;;5113081;28;20176;-72
2023/01/29 08:57:37;;;;;;;19.47;11.70;;;2.90;99.90;;;;;;5112929;28;20191;-72
2023/01/29 09:00:05;;;;;;;18.93;11.17;;;3.00;99.90;;;;;;5113380;28;20202;-75
2023/01/29 09:02:31;;;;;;;18.17;10.80;;;3.00;99.90;;;;;;5112233;28;20174;-74
2023/01/29 09:04:56;;;;;;;14.20;9.90;;;3.00;99.90;;;;;;5112832;28;20564;-73
2023/01/29 09:07:22;;;;;;;13.13;9.57;;;3.00;99.90;;;;;;5112804;28;20170;-71
2023/01/29 09:09:48;;;;;;;12.80;8.40;;;3.10;99.90;;;;;;5112636;28;20260;-70
2023/01/29 09:12:14;;;;;;;10.40;7.17;;;3.10;99.90;;;;;;5112789;28;20256;-71
2023/01/29 09:14:39;;;;;;;12.93;7.97;;;3.10;99.90;;;;;;5094525;28;20183;-70
2023/01/29 09:17:05;;;;;;;9.07;7.37;;;3.10;99.90;;;;;;5109777;28;20189;-68
2023/01/29 09:19:31;;;;;;;12.40;7.57;;;3.20;99.90;;;;;;5110551;28;20189;-69
2023/01/29 09:21:57;;;;;;;10.83;8.23;;;3.40;99.90;;;;;;5111070;28;20184;-71
2023/01/29 09:24:22;;;;;;;12.20;8.47;;;3.50;99.90;;;;;;5112772;28;20649;-70
2023/01/29 09:26:48;;;;;;;9.23;6.63;;;3.50;99.90;;;;;;5110302;28;20182;-69
2023/01/29 09:29:14;;;;;;;12.40;8.00;;;3.40;99.90;;;;;;5110031;28;20225;-70
2023/01/29 09:31:39;;;;;;;11.83;8.17;;;3.30;99.90;;;;;;5110721;28;20196;-70
2023/01/29 09:34:05;;;;;;;9.83;7.37;;;3.30;99.90;;;;;;5110813;28;20198;-69
2023/01/29 09:36:31;;;;;;;8.07;6.67;;;3.30;99.90;;;;;;5111316;28;20179;-69
2023/01/29 09:38:56;;;;;;;9.77;6.93;;;3.40;99.90;;;;;;5111403;28;20232;-73
2023/01/29 09:41:30;;;;;;;8.27;6.30;;;3.30;99.90;;;;;;5111791;28;20173;-72
2023/01/29 09:44:03;;;;;;;8.67;6.67;;;3.40;99.90;;;;;;5107316;28;20289;-70
2023/01/29 09:46:42;;;;;;;7.17;5.57;;;3.50;99.90;;;;;;5110317;28;20690;-71
2023/01/29 09:49:11;;;;;;;6.90;5.67;;;3.50;99.90;;;;;;5111544;28;20211;-72
2023/01/29 09:51:42;;;;;;;7.67;5.57;;;3.50;99.90;;;;;;5111074;28;20177;-75
2023/01/29 09:54:17;;;;;;;5.87;5.23;;;3.50;99.90;;;;;;5110818;28;20173;-72
2023/01/29 09:56:45;;;;;;;8.07;6.20;;;3.60;99.90;;;;;;5109321;28;20183;-72
2023/01/29 09:59:13;;;;;;;8.53;5.90;;;3.70;99.90;;;;;;5113593;28;20548;-75
2023/01/29 10:02:01;;;;;;;9.20;5.80;;;3.90;99.90;;;;;;5096952;28;20187;-73
2023/01/29 10:05:03;;;;;;;10.37;6.07;;;3.90;99.90;;;;;;5117997;28;20184;-84
2023/01/29 10:07:54;;;;;;;7.93;6.03;;;4.00;99.90;;;;;;5074194;28;20201;-83
2023/01/29 10:10:27;;;;;;;9.77;6.73;;;3.90;99.90;;;;;;5092459;28;20221;-82
2023/01/29 10:13:15;;;;;;;8.43;6.63;;;3.90;99.90;;;;;;5114542;28;20268;-84
2023/01/29 10:15:53;;;;;;;7.17;5.83;;;3.80;99.90;;;;;;5098030;28;20615;-86
2023/01/29 10:18:40;;;;;;;6.43;5.73;;;3.60;99.90;;;;;;5115480;28;20593;-83
2023/01/29 10:21:35;;;;;;;10.00;6.27;;;3.50;99.90;;;;;;5113418;28;20185;-81
2023/01/29 10:24:30;;;;;;;10.73;6.63;;;3.30;99.90;;;;;;5115898;28;20191;-82
2023/01/29 10:26:57;;;;;;;7.13;6.03;;;3.10;99.90;;;;;;5115518;28;20190;-82
2023/01/29 10:29:26;;;;;;;7.73;5.73;;;3.10;99.90;;;;;;5115630;28;20682;-84
2023/01/29 10:31:56;;;;;;;7.10;5.33;;;3.10;99.90;;;;;;5114051;28;20677;-83
2023/01/29 10:34:25;;;;;;;8.23;6.37;;;3.10;99.90;;;;;;5112832;28;20192;-81
2023/01/29 10:36:52;;;;;;;7.83;6.23;;;3.30;99.90;;;;;;5114772;28;20640;-84
2023/01/29 10:39:20;;;;;;;7.83;5.57;;;3.50;99.90;;;;;;5114476;28;20183;-83
2023/01/29 10:42:07;;;;;;;9.50;7.07;;;3.60;99.90;;;;;;5114915;28;20191;-83
2023/01/29 10:44:59;;;;;;;8.43;6.50;;;3.80;99.90;;;;;;5114620;28;20225;-82
2023/01/29 10:47:54;;;;;;;9.93;7.30;;;3.90;99.90;;;;;;5114531;28;20184;-81
2023/01/29 10:50:41;;;;;;;9.50;7.07;;;4.00;99.90;;;;;;5095986;28;20223;-80
2023/01/29 10:53:07;;;;;;;10.90;7.57;;;4.00;99.90;;;;;;5114894;28;20643;-82
2023/01/29 10:55:59;;;;;;;9.23;7.20;;;4.10;99.90;;;;;;5114478;28;20189;-83
2023/01/29 10:58:35;;;;;;;9.53;7.50;;;4.20;99.90;;;;;;5093444;28;20183;-84
2023/01/29 11:01:01;;;;;;;11.53;8.17;;;4.20;99.90;;;;;;5111240;28;20196;-83
2023/01/29 11:03:30;;;;;;;10.70;7.83;;;4.20;99.90;;;;;;5114170;28;20196;-82
2023/01/29 11:06:03;;;;;;;9.67;7.70;;;4.20;99.90;;;;;;5114127;28;20665;-81
2023/01/29 11:08:56;;;;;;;10.47;8.10;;;4.20;99.90;;;;;;5113821;28;20604;-83
2023/01/29 11:11:32;;;;;;;9.97;7.47;;;4.20;99.90;;;;;;5082832;28;20213;-83
2023/01/29 11:14:07;;;;;;;9.53;7.37;;;4.10;99.90;;;;;;5114239;28;20546;-82
2023/01/29 11:16:42;;;;;;;9.80;8.00;;;4.10;99.90;;;;;;5114635;28;20273;-83
2023/01/29 11:19:08;;;;;;;8.03;6.80;;;4.20;99.90;;;;;;5124786;28;20255;-84
2023/01/29 11:21:56;;;;;;;8.47;6.50;;;4.20;99.90;;;;;;5121212;28;20554;-81
2023/01/29 11:24:22;;;;;;;9.00;6.97;;;4.40;99.90;;;;;;5123196;28;20192;-85
2023/01/29 11:26:49;;;;;;;11.07;7.67;;;4.50;99.90;;;;;;5097012;28;20583;-85
2023/01/29 11:29:30;;;;;;;11.20;8.00;;;4.60;99.90;;;;;;5113739;28;20776;-84
2023/01/29 11:31:58;;;;;;;10.73;7.73;;;4.60;99.90;;;;;;5114819;28;20185;-82
2023/01/29 11:34:26;;;;;;;10.27;8.10;;;4.60;99.90;;;;;;5112595;28;20196;-85
2023/01/29 11:37:03;;;;;;;10.07;8.00;;;4.60;99.90;;;;;;5130694;28;20233;-83
2023/01/29 11:39:31;;;;;;;10.43;8.00;;;4.50;99.90;;;;;;5130734;28;20198;-85
2023/01/29 11:42:07;;;;;;;10.87;7.73;;;4.50;99.90;;;;;;5109311;28;20182;-85
2023/01/29 11:44:39;;;;;;;9.83;7.47;;;4.50;99.90;;;;;;5094772;28;20236;-85
2023/01/29 11:47:14;;;;;;;11.07;7.93;;;4.50;99.90;;;;;;5115269;28;20185;-83
2023/01/29 11:49:45;;;;;;;14.10;8.80;;;4.40;99.90;;;;;;5092466;28;20579;-83
2023/01/29 11:52:14;;;;;;;10.07;8.10;;;4.40;99.90;;;;;;5095374;28;20181;-81
2023/01/29 11:54:44;;;;;;;9.90;8.53;;;4.40;99.90;;;;;;5113783;28;20192;-85
2023/01/29 11:57:23;;;;;;;12.20;7.63;;;4.40;99.90;;;;;;5095205;28;20193;-83
2023/01/29 11:59:51;;;;;;;8.23;7.07;;;4.50;99.90;;;;;;5113408;28;20185;-83
2023/01/29 12:02:25;;;;;;;12.20;8.37;;;4.50;99.90;;;;;;5113856;28;20182;-83
2023/01/29 12:04:53;;;;;;;7.83;6.90;;;4.50;99.90;;;;;;5113487;28;20185;-84
2023/01/29 12:07:20;;;;;;;9.13;7.50;;;4.40;99.90;;;;;;5107842;28;20237;-81
2023/01/29 12:09:54;;;;;;;10.17;7.90;;;4.30;99.90;;;;;;5094420;28;20217;-84
2023/01/29 12:12:29;;;;;;;9.87;7.87;;;4.40;99.90;;;;;;5094263;28;20193;-83
2023/01/29 12:15:16;;;;;;;11.40;8.07;;;4.40;99.90;;;;;;5113023;28;20652;-84
2023/01/29 12:17:49;;;;;;;10.40;8.00;;;4.40;99.90;;;;;;5110217;28;20276;-85
2023/01/29 12:20:26;;;;;;;10.03;7.73;;;4.40;99.90;;;;;;5112851;28;20549;-81
2023/01/29 12:23:15;;;;;;;10.67;7.67;;;4.30;99.90;;;;;;5114783;28;20273;-84
2023/01/29 12:25:50;;;;;;;11.73;7.13;;;4.20;99.90;;;;;;5092236;28;20716;-82
2023/01/29 12:28:31;;;;;;;10.33;7.27;;;4.10;99.90;;;;;;5094762;28;20179;-80
2023/01/29 12:31:13;;;;;;;7.63;6.83;;;4.00;99.90;;;;;;5112900;28;20253;-81
2023/01/29 12:33:54;;;;;;;10.87;8.27;;;4.00;99.90;;;;;;5094091;28;20189;-81
2023/01/29 12:36:52;;;;;;;11.90;7.77;;;4.00;99.90;;;;;;5112830;28;20547;-84
2023/01/29 12:39:18;;;;;;;11.23;8.10;;;4.10;99.90;;;;;;5113124;28;20185;-82
2023/01/29 12:41:50;;;;;;;10.80;8.47;;;4.20;99.90;;;;;;5113011;28;20192;-80
2023/01/29 12:44:58;;;;;;;8.60;7.00;;;4.20;99.90;;;;;;5112520;28;20716;-84
2023/01/29 12:47:57;;;;;;;8.40;6.93;;;4.00;99.90;;;;;;5049798;28;20198;-84
2023/01/29 12:50:36;;;;;;;8.90;7.17;;;4.00;99.90;;;;;;5051824;28;20206;-83
2023/01/29 12:53:19;;;;;;;11.97;8.30;;;4.00;99.90;;;;;;5051821;28;20177;-83
2023/01/29 12:55:54;;;;;;;15.80;10.60;;;3.90;99.90;;;;;;5051087;28;20167;-82
2023/01/29 12:58:31;;;;;;;10.47;8.10;;;3.90;99.90;;;;;;5034158;28;20219;-82
2023/01/29 13:01:03;;;;;;;11.63;8.43;;;3.80;99.90;;;;;;5033975;28;20270;-84
2023/01/29 13:03:44;;;;;;;10.37;7.80;;;3.70;99.90;;;;;;5044236;28;20211;-84
2023/01/29 13:06:26;;;;;;;10.93;7.80;;;3.60;99.90;;;;;;5046545;28;20187;-83
2023/01/29 13:09:00;;;;;;;10.57;8.37;;;3.60;99.90;;;;;;5048204;28;20254;-84
2023/01/29 13:11:48;;;;;;;11.93;8.10;;;3.70;99.90;;;;;;5032048;28;20226;-84
2023/01/29 13:14:39;;;;;;;11.97;8.50;;;3.70;99.90;;;;;;5049336;28;20180;-83
2023/01/29 13:17:16;;;;;;;11.13;7.57;;;3.70;99.90;;;;;;5013905;28;20200;-83
2023/01/29 13:19:48;;;;;;;12.80;7.90;;;3.60;99.90;;;;;;5049506;28;20698;-85
2023/01/29 13:22:33;;;;;;;13.57;8.13;;;3.60;99.90;;;;;;5050003;28;20184;-83
2023/01/29 13:25:00;;;;;;;11.27;7.60;;;3.30;99.90;;;;;;5118111;28;20176;-83
2023/01/29 13:27:30;;;;;;;12.90;8.27;;;3.40;99.90;;;;;;5116424;28;20260;-77
2023/01/29 13:29:57;;;;;;;10.67;7.90;;;3.80;99.90;;;;;;5114128;28;20216;-77
2023/01/29 13:32:27;;;;;;;11.33;8.07;;;3.70;99.90;;;;;;5114151;28;20294;-76
2023/01/29 13:34:57;;;;;;;12.60;8.77;;;3.60;99.90;;;;;;5120484;28;20651;-78